Herman, Nebraska
Current Conditions -  °F | °C
As of 8:54 PM on Wednesday 26 Nov 2014 (Local Time) from KTQE Reporting Station
Overcast Overcast  
Wind Chill: 11°   Ceiling: 1500
Heat Index: 23°   Visibility: 10mi
Dew Point: 17°   Wind: 14mph
Humidity: 78%   Direction: 340°NNW
Pressure: 30.42"   Gusts: NA
Location:  41.67°N, 96.22°W
Report Text: KTQE 270254Z AUTO 34012KT 10SM OVC015 M05/M08 A3042 RMK AO2 SLP309 T10501083 53023
Loading
Personal Weather Stations






























Interactive Weather Map New forecast layout! Learn more

10-Day Weather Forecast

Advertisements
Track Severe Weather on mobile